sensor_id;sensor_type;location;lat;lon;timestamp;temperature;humidity
13798;DHT22;6970;51.340;3.240;2023-10-08T00:01:33;18.70;99.90
13798;DHT22;6970;51.340;3.240;2023-10-08T00:04:01;18.60;99.90
13798;DHT22;6970;51.340;3.240;2023-10-08T00:06:34;18.70;99.90
13798;DHT22;6970;51.340;3.240;2023-10-08T00:09:03;18.70;99.90
13798;DHT22;6970;51.340;3.240;2023-10-08T00:11:37;18.60;99.90
13798;DHT22;6970;51.340;3.240;2023-10-08T00:14:07;18.60;99.90
13798;DHT22;6970;51.340;3.240;2023-10-08T00:16:37;18.60;99.90
13798;DHT22;6970;51.340;3.240;2023-10-08T00:19:10;18.60;99.90
13798;DHT22;6970;51.340;3.240;2023-10-08T00:21:43;18.60;99.90
13798;DHT22;6970;51.340;3.240;2023-10-08T00:24:14;18.60;99.90
13798;DHT22;6970;51.340;3.240;2023-10-08T00:26:44;18.60;99.90
13798;DHT22;6970;51.340;3.240;2023-10-08T00:29:16;18.50;99.90
13798;DHT22;6970;51.340;3.240;2023-10-08T00:31:49;18.50;99.90
13798;DHT22;6970;51.340;3.240;2023-10-08T00:34:18;18.50;99.90
13798;DHT22;6970;51.340;3.240;2023-10-08T00:36:51;18.50;99.90
13798;DHT22;6970;51.340;3.240;2023-10-08T00:39:21;18.50;99.90
13798;DHT22;6970;51.340;3.240;2023-10-08T00:41:53;18.50;99.90
13798;DHT22;6970;51.340;3.240;2023-10-08T00:44:30;18.50;99.90
13798;DHT22;6970;51.340;3.240;2023-10-08T00:47:01;18.40;99.90
13798;DHT22;6970;51.340;3.240;2023-10-08T00:49:29;18.40;99.90
13798;DHT22;6970;51.340;3.240;2023-10-08T00:52:26;18.40;99.90
13798;DHT22;6970;51.340;3.240;2023-10-08T00:54:59;18.40;99.90
13798;DHT22;6970;51.340;3.240;2023-10-08T00:57:33;18.40;99.90
13798;DHT22;6970;51.340;3.240;2023-10-08T01:00:04;18.40;99.90
13798;DHT22;6970;51.340;3.240;2023-10-08T01:02:45;18.40;99.90
13798;DHT22;6970;51.340;3.240;2023-10-08T01:05:14;18.40;99.90
13798;DHT22;6970;51.340;3.240;2023-10-08T01:07:50;18.40;99.90
13798;DHT22;6970;51.340;3.240;2023-10-08T01:10:18;18.40;99.90
13798;DHT22;6970;51.340;3.240;2023-10-08T01:12:48;18.40;99.90
13798;DHT22;6970;51.340;3.240;2023-10-08T01:15:24;18.40;99.90
13798;DHT22;6970;51.340;3.240;2023-10-08T01:17:57;18.40;99.90
13798;DHT22;6970;51.340;3.240;2023-10-08T01:20:29;18.40;99.90
13798;DHT22;6970;51.340;3.240;2023-10-08T01:23:07;18.30;99.90
13798;DHT22;6970;51.340;3.240;2023-10-08T01:25:41;18.40;99.90
13798;DHT22;6970;51.340;3.240;2023-10-08T01:28:12;18.30;99.90
13798;DHT22;6970;51.340;3.240;2023-10-08T01:30:55;18.30;99.90
13798;DHT22;6970;51.340;3.240;2023-10-08T01:33:24;18.30;99.90
13798;DHT22;6970;51.340;3.240;2023-10-08T01:35:57;18.30;99.90
13798;DHT22;6970;51.340;3.240;2023-10-08T01:38:33;18.30;99.90
13798;DHT22;6970;51.340;3.240;2023-10-08T01:41:02;18.30;99.90
13798;DHT22;6970;51.340;3.240;2023-10-08T01:43:46;18.30;99.90
13798;DHT22;6970;51.340;3.240;2023-10-08T01:46:17;18.30;99.90
13798;DHT22;6970;51.340;3.240;2023-10-08T01:48:47;18.30;99.90
13798;DHT22;6970;51.340;3.240;2023-10-08T01:51:19;18.30;99.90
13798;DHT22;6970;51.340;3.240;2023-10-08T01:54:04;18.30;99.90
13798;DHT22;6970;51.340;3.240;2023-10-08T01:56:42;18.30;99.90
13798;DHT22;6970;51.340;3.240;2023-10-08T01:59:15;18.40;99.90
13798;DHT22;6970;51.340;3.240;2023-10-08T02:01:45;18.30;99.90
13798;DHT22;6970;51.340;3.240;2023-10-08T02:04:34;18.30;99.90
13798;DHT22;6970;51.340;3.240;2023-10-08T02:07:06;18.30;99.90
13798;DHT22;6970;51.340;3.240;2023-10-08T02:09:42;18.30;99.90
13798;DHT22;6970;51.340;3.240;2023-10-08T02:12:12;18.30;99.90
13798;DHT22;6970;51.340;3.240;2023-10-08T02:14:41;18.30;99.90
13798;DHT22;6970;51.340;3.240;2023-10-08T02:17:11;18.30;99.90
13798;DHT22;6970;51.340;3.240;2023-10-08T02:19:43;18.30;99.90
13798;DHT22;6970;51.340;3.240;2023-10-08T02:22:11;18.30;99.90
13798;DHT22;6970;51.340;3.240;2023-10-08T02:24:41;18.20;99.90
13798;DHT22;6970;51.340;3.240;2023-10-08T02:27:09;18.30;99.90
13798;DHT22;6970;51.340;3.240;2023-10-08T02:29:39;18.20;99.90
13798;DHT22;6970;51.340;3.240;2023-10-08T02:32:08;18.30;99.90
13798;DHT22;6970;51.340;3.240;2023-10-08T02:34:38;18.20;99.90
13798;DHT22;6970;51.340;3.240;2023-10-08T02:37:05;18.20;99.90
13798;DHT22;6970;51.340;3.240;2023-10-08T02:39:35;18.30;99.90
13798;DHT22;6970;51.340;3.240;2023-10-08T02:42:05;18.20;99.90
13798;DHT22;6970;51.340;3.240;2023-10-08T02:44:39;18.20;99.90
13798;DHT22;6970;51.340;3.240;2023-10-08T02:47:10;18.20;99.90
13798;DHT22;6970;51.340;3.240;2023-10-08T02:49:48;18.20;99.90
13798;DHT22;6970;51.340;3.240;2023-10-08T02:52:22;18.20;99.90
13798;DHT22;6970;51.340;3.240;2023-10-08T02:54:52;18.20;99.90
13798;DHT22;6970;51.340;3.240;2023-10-08T02:57:21;18.20;99.90
13798;DHT22;6970;51.340;3.240;2023-10-08T02:59:51;18.20;99.90
13798;DHT22;6970;51.340;3.240;2023-10-08T03:02:21;18.20;99.90
13798;DHT22;6970;51.340;3.240;2023-10-08T03:04:51;18.20;99.90
13798;DHT22;6970;51.340;3.240;2023-10-08T03:07:20;18.20;99.90
13798;DHT22;6970;51.340;3.240;2023-10-08T03:09:52;18.20;99.90
13798;DHT22;6970;51.340;3.240;2023-10-08T03:12:34;18.20;99.90
13798;DHT22;6970;51.340;3.240;2023-10-08T03:15:05;18.20;99.90
13798;DHT22;6970;51.340;3.240;2023-10-08T03:17:44;18.20;99.90
13798;DHT22;6970;51.340;3.240;2023-10-08T03:20:19;18.20;99.90
13798;DHT22;6970;51.340;3.240;2023-10-08T03:23:13;18.20;99.90
13798;DHT22;6970;51.340;3.240;2023-10-08T03:25:55;18.20;99.90
13798;DHT22;6970;51.340;3.240;2023-10-08T03:28:29;18.10;99.90
13798;DHT22;6970;51.340;3.240;2023-10-08T03:31:02;18.10;99.90
13798;DHT22;6970;51.340;3.240;2023-10-08T03:33:34;18.10;99.90
13798;DHT22;6970;51.340;3.240;2023-10-08T03:36:05;18.10;99.90
13798;DHT22;6970;51.340;3.240;2023-10-08T03:38:38;18.10;99.90
13798;DHT22;6970;51.340;3.240;2023-10-08T03:41:24;18.10;99.90
13798;DHT22;6970;51.340;3.240;2023-10-08T03:44:00;18.10;99.90
13798;DHT22;6970;51.340;3.240;2023-10-08T03:46:43;18.10;99.90
13798;DHT22;6970;51.340;3.240;2023-10-08T03:49:13;18.20;99.90
13798;DHT22;6970;51.340;3.240;2023-10-08T03:51:51;18.10;99.90
13798;DHT22;6970;51.340;3.240;2023-10-08T03:54:22;18.10;99.90
13798;DHT22;6970;51.340;3.240;2023-10-08T03:57:02;18.00;99.90
13798;DHT22;6970;51.340;3.240;2023-10-08T03:59:43;18.00;99.90
13798;DHT22;6970;51.340;3.240;2023-10-08T04:02:10;18.00;99.90
13798;DHT22;6970;51.340;3.240;2023-10-08T04:04:43;17.90;99.90
13798;DHT22;6970;51.340;3.240;2023-10-08T04:07:25;17.90;99.90
13798;DHT22;6970;51.340;3.240;2023-10-08T04:10:00;17.80;99.90
13798;DHT22;6970;51.340;3.240;2023-10-08T04:12:57;17.80;99.90
13798;DHT22;6970;51.340;3.240;2023-10-08T04:15:35;17.70;99.90
13798;DHT22;6970;51.340;3.240;2023-10-08T04:18:25;17.60;99.90
13798;DHT22;6970;51.340;3.240;2023-10-08T04:20:54;17.60;99.90
13798;DHT22;6970;51.340;3.240;2023-10-08T04:23:31;17.50;99.90
13798;DHT22;6970;51.340;3.240;2023-10-08T04:26:00;17.50;99.90
13798;DHT22;6970;51.340;3.240;2023-10-08T04:28:29;17.40;99.90
13798;DHT22;6970;51.340;3.240;2023-10-08T04:31:07;17.40;99.90
13798;DHT22;6970;51.340;3.240;2023-10-08T04:33:45;17.40;99.90
13798;DHT22;6970;51.340;3.240;2023-10-08T04:36:14;17.40;99.90
13798;DHT22;6970;51.340;3.240;2023-10-08T04:38:45;17.40;99.90
13798;DHT22;6970;51.340;3.240;2023-10-08T04:41:18;17.40;99.90
13798;DHT22;6970;51.340;3.240;2023-10-08T04:43:47;17.40;99.90
13798;DHT22;6970;51.340;3.240;2023-10-08T04:46:19;17.40;99.90
13798;DHT22;6970;51.340;3.240;2023-10-08T04:49:00;17.50;99.90
13798;DHT22;6970;51.340;3.240;2023-10-08T04:51:34;17.50;99.90
13798;DHT22;6970;51.340;3.240;2023-10-08T04:54:13;17.50;99.90
13798;DHT22;6970;51.340;3.240;2023-10-08T04:56:46;17.50;99.90
13798;DHT22;6970;51.340;3.240;2023-10-08T04:59:18;17.50;99.90
13798;DHT22;6970;51.340;3.240;2023-10-08T05:01:51;17.60;99.90
13798;DHT22;6970;51.340;3.240;2023-10-08T05:04:37;17.60;99.90
13798;DHT22;6970;51.340;3.240;2023-10-08T05:07:23;17.60;99.90
13798;DHT22;6970;51.340;3.240;2023-10-08T05:09:59;17.60;99.90
13798;DHT22;6970;51.340;3.240;2023-10-08T05:12:32;17.50;99.90
13798;DHT22;6970;51.340;3.240;2023-10-08T05:15:01;17.50;99.90
13798;DHT22;6970;51.340;3.240;2023-10-08T05:17:46;17.50;99.90
13798;DHT22;6970;51.340;3.240;2023-10-08T05:20:22;17.40;99.90
13798;DHT22;6970;51.340;3.240;2023-10-08T05:23:13;17.30;99.90
13798;DHT22;6970;51.340;3.240;2023-10-08T05:26:03;17.20;99.90
13798;DHT22;6970;51.340;3.240;2023-10-08T05:28:39;17.20;99.90
13798;DHT22;6970;51.340;3.240;2023-10-08T05:31:28;17.10;99.90
13798;DHT22;6970;51.340;3.240;2023-10-08T05:34:22;17.00;99.90
13798;DHT22;6970;51.340;3.240;2023-10-08T05:37:00;17.00;99.90
13798;DHT22;6970;51.340;3.240;2023-10-08T05:39:32;17.00;99.90
13798;DHT22;6970;51.340;3.240;2023-10-08T05:42:09;17.00;99.90
13798;DHT22;6970;51.340;3.240;2023-10-08T05:44:45;17.00;99.90
13798;DHT22;6970;51.340;3.240;2023-10-08T05:47:17;16.90;99.90
13798;DHT22;6970;51.340;3.240;2023-10-08T05:50:02;16.90;99.90
13798;DHT22;6970;51.340;3.240;2023-10-08T05:52:51;16.90;99.90
13798;DHT22;6970;51.340;3.240;2023-10-08T05:55:28;16.80;99.90
13798;DHT22;6970;51.340;3.240;2023-10-08T05:58:10;16.80;99.90
13798;DHT22;6970;51.340;3.240;2023-10-08T06:00:45;16.70;99.90
13798;DHT22;6970;51.340;3.240;2023-10-08T06:03:20;16.70;99.90
13798;DHT22;6970;51.340;3.240;2023-10-08T06:06:03;16.70;99.90
13798;DHT22;6970;51.340;3.240;2023-10-08T06:08:52;16.60;99.90
13798;DHT22;6970;51.340;3.240;2023-10-08T06:11:34;16.60;99.90
13798;DHT22;6970;51.340;3.240;2023-10-08T06:14:28;16.60;99.90
13798;DHT22;6970;51.340;3.240;2023-10-08T06:17:16;16.60;99.90
13798;DHT22;6970;51.340;3.240;2023-10-08T06:20:27;16.60;99.90
13798;DHT22;6970;51.340;3.240;2023-10-08T06:22:58;16.60;99.90
13798;DHT22;6970;51.340;3.240;2023-10-08T06:25:31;16.60;99.90
13798;DHT22;6970;51.340;3.240;2023-10-08T06:27:58;16.60;99.90
13798;DHT22;6970;51.340;3.240;2023-10-08T06:30:29;16.70;99.90
13798;DHT22;6970;51.340;3.240;2023-10-08T06:32:59;16.70;99.90
13798;DHT22;6970;51.340;3.240;2023-10-08T06:35:30;16.70;99.90
13798;DHT22;6970;51.340;3.240;2023-10-08T06:38:00;16.70;99.90
13798;DHT22;6970;51.340;3.240;2023-10-08T06:40:35;16.70;99.90
13798;DHT22;6970;51.340;3.240;2023-10-08T06:43:05;16.70;99.90
13798;DHT22;6970;51.340;3.240;2023-10-08T06:45:54;16.70;99.90
13798;DHT22;6970;51.340;3.240;2023-10-08T06:48:26;16.80;99.90
13798;DHT22;6970;51.340;3.240;2023-10-08T06:50:56;16.80;99.90
13798;DHT22;6970;51.340;3.240;2023-10-08T06:53:25;16.80;99.90
13798;DHT22;6970;51.340;3.240;2023-10-08T06:55:53;16.90;99.90
13798;DHT22;6970;51.340;3.240;2023-10-08T06:58:24;17.00;99.90
13798;DHT22;6970;51.340;3.240;2023-10-08T07:00:53;17.00;99.90
13798;DHT22;6970;51.340;3.240;2023-10-08T07:03:22;17.10;99.90
13798;DHT22;6970;51.340;3.240;2023-10-08T07:05:50;17.20;99.90
13798;DHT22;6970;51.340;3.240;2023-10-08T07:08:32;17.30;99.90
13798;DHT22;6970;51.340;3.240;2023-10-08T07:11:01;17.40;99.90
13798;DHT22;6970;51.340;3.240;2023-10-08T07:13:34;17.50;99.90
13798;DHT22;6970;51.340;3.240;2023-10-08T07:16:03;17.50;99.90
13798;DHT22;6970;51.340;3.240;2023-10-08T07:18:34;17.60;99.90
13798;DHT22;6970;51.340;3.240;2023-10-08T07:21:04;17.80;99.90
13798;DHT22;6970;51.340;3.240;2023-10-08T07:23:42;17.80;99.90
13798;DHT22;6970;51.340;3.240;2023-10-08T07:26:29;17.90;99.90
13798;DHT22;6970;51.340;3.240;2023-10-08T07:29:06;18.10;99.90
13798;DHT22;6970;51.340;3.240;2023-10-08T07:31:37;18.40;99.90
13798;DHT22;6970;51.340;3.240;2023-10-08T07:34:09;19.10;99.90
13798;DHT22;6970;51.340;3.240;2023-10-08T07:36:49;19.70;99.90
13798;DHT22;6970;51.340;3.240;2023-10-08T07:39:23;20.30;99.90
13798;DHT22;6970;51.340;3.240;2023-10-08T07:42:05;20.90;99.90
13798;DHT22;6970;51.340;3.240;2023-10-08T07:44:35;21.50;99.90
13798;DHT22;6970;51.340;3.240;2023-10-08T07:47:03;22.40;99.90
13798;DHT22;6970;51.340;3.240;2023-10-08T07:49:40;23.30;99.90
13798;DHT22;6970;51.340;3.240;2023-10-08T07:52:11;24.30;99.90
13798;DHT22;6970;51.340;3.240;2023-10-08T07:54:46;25.30;99.90
13798;DHT22;6970;51.340;3.240;2023-10-08T07:57:16;26.10;99.90
13798;DHT22;6970;51.340;3.240;2023-10-08T07:59:56;26.30;99.90
13798;DHT22;6970;51.340;3.240;2023-10-08T08:02:39;26.30;99.90
13798;DHT22;6970;51.340;3.240;2023-10-08T08:05:08;26.40;99.90
13798;DHT22;6970;51.340;3.240;2023-10-08T08:07:38;26.50;99.90
13798;DHT22;6970;51.340;3.240;2023-10-08T08:10:07;26.40;99.90
13798;DHT22;6970;51.340;3.240;2023-10-08T08:12:41;26.20;99.90
13798;DHT22;6970;51.340;3.240;2023-10-08T08:15:15;26.10;99.90
13798;DHT22;6970;51.340;3.240;2023-10-08T08:17:44;26.10;99.90
13798;DHT22;6970;51.340;3.240;2023-10-08T08:20:17;26.10;99.90
13798;DHT22;6970;51.340;3.240;2023-10-08T08:22:45;26.20;99.90
13798;DHT22;6970;51.340;3.240;2023-10-08T08:25:24;26.20;99.90
13798;DHT22;6970;51.340;3.240;2023-10-08T08:28:02;26.30;99.90
13798;DHT22;6970;51.340;3.240;2023-10-08T08:30:36;26.60;99.90
13798;DHT22;6970;51.340;3.240;2023-10-08T08:33:06;27.40;99.60
13798;DHT22;6970;51.340;3.240;2023-10-08T08:35:40;28.00;98.70
13798;DHT22;6970;51.340;3.240;2023-10-08T08:38:10;28.70;98.20
13798;DHT22;6970;51.340;3.240;2023-10-08T08:40:41;29.50;97.20
13798;DHT22;6970;51.340;3.240;2023-10-08T08:43:08;30.40;96.00
13798;DHT22;6970;51.340;3.240;2023-10-08T08:45:41;31.40;95.20
13798;DHT22;6970;51.340;3.240;2023-10-08T08:48:12;32.20;93.70
13798;DHT22;6970;51.340;3.240;2023-10-08T08:50:42;32.80;92.50
13798;DHT22;6970;51.340;3.240;2023-10-08T08:53:13;33.40;91.60
13798;DHT22;6970;51.340;3.240;2023-10-08T08:55:44;34.20;91.00
13798;DHT22;6970;51.340;3.240;2023-10-08T08:58:12;34.60;90.00
13798;DHT22;6970;51.340;3.240;2023-10-08T09:00:46;35.10;89.10
13798;DHT22;6970;51.340;3.240;2023-10-08T09:03:18;35.50;87.90
13798;DHT22;6970;51.340;3.240;2023-10-08T09:05:48;35.70;86.70
13798;DHT22;6970;51.340;3.240;2023-10-08T09:08:18;35.80;85.80
13798;DHT22;6970;51.340;3.240;2023-10-08T09:10:46;36.00;85.60
13798;DHT22;6970;51.340;3.240;2023-10-08T09:13:20;36.50;84.80
13798;DHT22;6970;51.340;3.240;2023-10-08T09:16:02;36.80;83.80
13798;DHT22;6970;51.340;3.240;2023-10-08T09:18:32;37.10;82.60
13798;DHT22;6970;51.340;3.240;2023-10-08T09:21:16;37.40;81.60
13798;DHT22;6970;51.340;3.240;2023-10-08T09:23:52;37.60;80.40
13798;DHT22;6970;51.340;3.240;2023-10-08T09:26:27;37.70;78.40
13798;DHT22;6970;51.340;3.240;2023-10-08T09:28:58;37.70;79.40
13798;DHT22;6970;51.340;3.240;2023-10-08T09:31:28;37.80;79.30
13798;DHT22;6970;51.340;3.240;2023-10-08T09:34:03;37.70;78.60
13798;DHT22;6970;51.340;3.240;2023-10-08T09:36:31;37.50;78.70
13798;DHT22;6970;51.340;3.240;2023-10-08T09:39:03;37.50;79.10
13798;DHT22;6970;51.340;3.240;2023-10-08T09:41:38;37.40;77.90
13798;DHT22;6970;51.340;3.240;2023-10-08T09:44:08;36.80;77.60
13798;DHT22;6970;51.340;3.240;2023-10-08T09:46:40;36.40;78.90
13798;DHT22;6970;51.340;3.240;2023-10-08T09:49:11;36.40;79.40
13798;DHT22;6970;51.340;3.240;2023-10-08T09:51:40;36.10;79.30
13798;DHT22;6970;51.340;3.240;2023-10-08T09:57:11;36.30;79.50
13798;DHT22;6970;51.340;3.240;2023-10-08T09:59:41;36.50;77.30
13798;DHT22;6970;51.340;3.240;2023-10-08T10:02:10;36.40;78.10
13798;DHT22;6970;51.340;3.240;2023-10-08T10:04:45;36.40;77.40
13798;DHT22;6970;51.340;3.240;2023-10-08T10:07:25;36.30;77.40
13798;DHT22;6970;51.340;3.240;2023-10-08T10:09:54;36.30;76.20
13798;DHT22;6970;51.340;3.240;2023-10-08T10:12:26;36.40;77.40
13798;DHT22;6970;51.340;3.240;2023-10-08T10:14:57;36.80;76.80
13798;DHT22;6970;51.340;3.240;2023-10-08T10:17:29;37.00;75.90
13798;DHT22;6970;51.340;3.240;2023-10-08T10:20:11;37.20;75.40
13798;DHT22;6970;51.340;3.240;2023-10-08T10:22:43;37.40;74.40
13798;DHT22;6970;51.340;3.240;2023-10-08T10:25:16;37.50;73.50
13798;DHT22;6970;51.340;3.240;2023-10-08T10:30:20;36.90;74.30
13798;DHT22;6970;51.340;3.240;2023-10-08T10:32:55;36.80;73.20
13798;DHT22;6970;51.340;3.240;2023-10-08T10:35:29;36.30;73.80
13798;DHT22;6970;51.340;3.240;2023-10-08T10:37:58;36.10;75.60
13798;DHT22;6970;51.340;3.240;2023-10-08T10:40:33;35.90;76.40
13798;DHT22;6970;51.340;3.240;2023-10-08T10:43:07;35.70;76.80
13798;DHT22;6970;51.340;3.240;2023-10-08T10:45:40;35.70;77.30
13798;DHT22;6970;51.340;3.240;2023-10-08T10:48:12;35.80;76.60
13798;DHT22;6970;51.340;3.240;2023-10-08T10:50:49;35.60;77.20
13798;DHT22;6970;51.340;3.240;2023-10-08T10:53:42;35.60;77.60
13798;DHT22;6970;51.340;3.240;2023-10-08T10:56:39;35.50;77.50
13798;DHT22;6970;51.340;3.240;2023-10-08T10:59:13;35.60;77.70
13798;DHT22;6970;51.340;3.240;2023-10-08T11:01:49;35.50;77.30
13798;DHT22;6970;51.340;3.240;2023-10-08T11:04:32;35.30;76.60
13798;DHT22;6970;51.340;3.240;2023-10-08T11:07:03;34.70;76.90
13798;DHT22;6970;51.340;3.240;2023-10-08T11:09:34;34.40;76.70
13798;DHT22;6970;51.340;3.240;2023-10-08T11:12:13;34.20;77.80
13798;DHT22;6970;51.340;3.240;2023-10-08T11:14:46;34.00;78.00
13798;DHT22;6970;51.340;3.240;2023-10-08T11:17:18;33.70;77.80
13798;DHT22;6970;51.340;3.240;2023-10-08T11:19:52;33.20;78.80
13798;DHT22;6970;51.340;3.240;2023-10-08T11:22:41;32.50;79.90
13798;DHT22;6970;51.340;3.240;2023-10-08T11:25:24;31.80;81.60
13798;DHT22;6970;51.340;3.240;2023-10-08T11:27:59;31.10;83.50
13798;DHT22;6970;51.340;3.240;2023-10-08T11:30:32;30.90;84.80
13798;DHT22;6970;51.340;3.240;2023-10-08T11:33:03;30.60;85.20
13798;DHT22;6970;51.340;3.240;2023-10-08T11:35:36;30.20;86.20
13798;DHT22;6970;51.340;3.240;2023-10-08T11:38:15;29.80;87.10
13798;DHT22;6970;51.340;3.240;2023-10-08T11:40:51;29.50;87.60
13798;DHT22;6970;51.340;3.240;2023-10-08T11:43:26;29.40;87.90
13798;DHT22;6970;51.340;3.240;2023-10-08T11:45:56;29.30;87.80
13798;DHT22;6970;51.340;3.240;2023-10-08T11:48:24;29.40;87.80
13798;DHT22;6970;51.340;3.240;2023-10-08T11:50:58;29.40;88.10
13798;DHT22;6970;51.340;3.240;2023-10-08T11:53:28;29.30;88.90
13798;DHT22;6970;51.340;3.240;2023-10-08T11:55:58;29.20;88.60
13798;DHT22;6970;51.340;3.240;2023-10-08T11:58:29;29.10;88.70
13798;DHT22;6970;51.340;3.240;2023-10-08T12:01:07;29.10;88.90
13798;DHT22;6970;51.340;3.240;2023-10-08T12:03:39;29.20;89.30
13798;DHT22;6970;51.340;3.240;2023-10-08T12:06:09;29.30;89.10
13798;DHT22;6970;51.340;3.240;2023-10-08T12:08:39;29.40;88.80
13798;DHT22;6970;51.340;3.240;2023-10-08T12:11:06;29.50;88.30
13798;DHT22;6970;51.340;3.240;2023-10-08T12:13:42;29.50;88.00
13798;DHT22;6970;51.340;3.240;2023-10-08T12:16:13;29.40;87.70
13798;DHT22;6970;51.340;3.240;2023-10-08T12:18:51;29.50;89.30
13798;DHT22;6970;51.340;3.240;2023-10-08T12:21:29;29.60;90.20
13798;DHT22;6970;51.340;3.240;2023-10-08T12:24:03;29.70;90.30
13798;DHT22;6970;51.340;3.240;2023-10-08T12:26:32;29.90;90.40
13798;DHT22;6970;51.340;3.240;2023-10-08T12:29:01;29.90;90.30
13798;DHT22;6970;51.340;3.240;2023-10-08T12:31:31;29.90;90.20
13798;DHT22;6970;51.340;3.240;2023-10-08T12:33:58;30.00;90.40
13798;DHT22;6970;51.340;3.240;2023-10-08T12:36:27;30.00;90.50
13798;DHT22;6970;51.340;3.240;2023-10-08T12:38:59;29.80;90.50
13798;DHT22;6970;51.340;3.240;2023-10-08T12:41:34;29.60;90.80
13798;DHT22;6970;51.340;3.240;2023-10-08T12:44:05;29.40;91.10
13798;DHT22;6970;51.340;3.240;2023-10-08T12:46:34;29.30;91.30
13798;DHT22;6970;51.340;3.240;2023-10-08T12:49:02;29.30;91.30
13798;DHT22;6970;51.340;3.240;2023-10-08T12:51:30;29.30;91.40
13798;DHT22;6970;51.340;3.240;2023-10-08T12:54:01;29.30;91.50
13798;DHT22;6970;51.340;3.240;2023-10-08T12:56:38;29.20;91.60
13798;DHT22;6970;51.340;3.240;2023-10-08T12:59:12;29.30;91.60
13798;DHT22;6970;51.340;3.240;2023-10-08T13:01:49;29.20;91.60
13798;DHT22;6970;51.340;3.240;2023-10-08T13:04:23;29.20;91.70
13798;DHT22;6970;51.340;3.240;2023-10-08T13:07:05;29.10;91.60
13798;DHT22;6970;51.340;3.240;2023-10-08T13:09:34;29.00;91.70
13798;DHT22;6970;51.340;3.240;2023-10-08T13:12:04;28.80;91.90
13798;DHT22;6970;51.340;3.240;2023-10-08T13:14:34;28.80;92.10
13798;DHT22;6970;51.340;3.240;2023-10-08T13:17:05;28.70;92.10
13798;DHT22;6970;51.340;3.240;2023-10-08T13:19:39;28.40;92.20
13798;DHT22;6970;51.340;3.240;2023-10-08T13:22:08;28.30;92.30
13798;DHT22;6970;51.340;3.240;2023-10-08T13:24:39;28.30;92.30
13798;DHT22;6970;51.340;3.240;2023-10-08T13:27:09;28.20;92.30
13798;DHT22;6970;51.340;3.240;2023-10-08T13:29:39;28.10;92.50
13798;DHT22;6970;51.340;3.240;2023-10-08T13:32:09;28.10;92.60
13798;DHT22;6970;51.340;3.240;2023-10-08T13:34:45;28.10;92.70
13798;DHT22;6970;51.340;3.240;2023-10-08T13:37:15;28.00;92.60
13798;DHT22;6970;51.340;3.240;2023-10-08T13:39:45;28.00;92.70
13798;DHT22;6970;51.340;3.240;2023-10-08T13:42:13;27.90;92.70
13798;DHT22;6970;51.340;3.240;2023-10-08T13:44:48;27.90;92.90
13798;DHT22;6970;51.340;3.240;2023-10-08T13:47:15;28.00;93.10
13798;DHT22;6970;51.340;3.240;2023-10-08T13:49:46;28.00;93.10
13798;DHT22;6970;51.340;3.240;2023-10-08T13:52:19;27.90;93.10
13798;DHT22;6970;51.340;3.240;2023-10-08T13:54:56;28.00;93.10
13798;DHT22;6970;51.340;3.240;2023-10-08T13:57:28;27.90;93.00
13798;DHT22;6970;51.340;3.240;2023-10-08T13:59:59;27.90;92.80
13798;DHT22;6970;51.340;3.240;2023-10-08T14:02:30;27.90;92.80
13798;DHT22;6970;51.340;3.240;2023-10-08T14:04:58;27.80;92.80
13798;DHT22;6970;51.340;3.240;2023-10-08T14:07:29;27.80;92.90
13798;DHT22;6970;51.340;3.240;2023-10-08T14:09:57;27.70;93.00
13798;DHT22;6970;51.340;3.240;2023-10-08T14:12:26;27.60;93.00
13798;DHT22;6970;51.340;3.240;2023-10-08T14:14:54;27.60;93.00
13798;DHT22;6970;51.340;3.240;2023-10-08T14:17:22;27.50;92.90
13798;DHT22;6970;51.340;3.240;2023-10-08T14:20:10;27.40;93.10
13798;DHT22;6970;51.340;3.240;2023-10-08T14:22:43;27.30;93.10
13798;DHT22;6970;51.340;3.240;2023-10-08T14:25:11;27.30;93.20
13798;DHT22;6970;51.340;3.240;2023-10-08T14:27:43;27.30;93.20
13798;DHT22;6970;51.340;3.240;2023-10-08T14:30:22;27.40;93.10
13798;DHT22;6970;51.340;3.240;2023-10-08T14:32:54;27.30;93.10
13798;DHT22;6970;51.340;3.240;2023-10-08T14:35:27;27.10;93.10
13798;DHT22;6970;51.340;3.240;2023-10-08T14:38:15;27.00;93.30
13798;DHT22;6970;51.340;3.240;2023-10-08T14:41:00;26.80;93.40
13798;DHT22;6970;51.340;3.240;2023-10-08T14:43:46;26.70;93.60
13798;DHT22;6970;51.340;3.240;2023-10-08T14:46:16;26.70;93.60
13798;DHT22;6970;51.340;3.240;2023-10-08T14:48:46;26.70;93.50
13798;DHT22;6970;51.340;3.240;2023-10-08T14:51:14;26.60;93.20
13798;DHT22;6970;51.340;3.240;2023-10-08T14:53:47;26.50;93.30
13798;DHT22;6970;51.340;3.240;2023-10-08T14:56:15;26.40;93.50
13798;DHT22;6970;51.340;3.240;2023-10-08T14:58:43;26.40;93.60
13798;DHT22;6970;51.340;3.240;2023-10-08T15:01:10;26.30;93.60
13798;DHT22;6970;51.340;3.240;2023-10-08T15:03:41;26.30;93.60
13798;DHT22;6970;51.340;3.240;2023-10-08T15:06:08;26.30;93.70
13798;DHT22;6970;51.340;3.240;2023-10-08T15:08:37;26.30;93.80
13798;DHT22;6970;51.340;3.240;2023-10-08T15:11:05;26.30;93.90
13798;DHT22;6970;51.340;3.240;2023-10-08T15:13:33;26.20;94.00
13798;DHT22;6970;51.340;3.240;2023-10-08T15:16:02;26.20;94.10
13798;DHT22;6970;51.340;3.240;2023-10-08T15:18:31;26.10;94.30
13798;DHT22;6970;51.340;3.240;2023-10-08T15:21:09;26.10;94.60
13798;DHT22;6970;51.340;3.240;2023-10-08T15:23:36;26.00;95.00
13798;DHT22;6970;51.340;3.240;2023-10-08T15:26:04;26.00;95.30
13798;DHT22;6970;51.340;3.240;2023-10-08T15:28:32;25.90;95.50
13798;DHT22;6970;51.340;3.240;2023-10-08T15:30:59;25.90;95.70
13798;DHT22;6970;51.340;3.240;2023-10-08T15:33:30;25.80;96.00
13798;DHT22;6970;51.340;3.240;2023-10-08T15:35:59;25.70;96.20
13798;DHT22;6970;51.340;3.240;2023-10-08T15:38:29;25.60;96.30
13798;DHT22;6970;51.340;3.240;2023-10-08T15:41:00;25.50;96.50
13798;DHT22;6970;51.340;3.240;2023-10-08T15:43:29;25.40;96.70
13798;DHT22;6970;51.340;3.240;2023-10-08T15:45:58;25.30;96.80
13798;DHT22;6970;51.340;3.240;2023-10-08T15:48:29;25.20;97.00
13798;DHT22;6970;51.340;3.240;2023-10-08T15:50:57;25.00;97.00
13798;DHT22;6970;51.340;3.240;2023-10-08T15:53:27;24.90;97.20
13798;DHT22;6970;51.340;3.240;2023-10-08T15:55:54;24.80;97.30
13798;DHT22;6970;51.340;3.240;2023-10-08T15:58:23;24.80;97.30
13798;DHT22;6970;51.340;3.240;2023-10-08T16:00:54;24.70;97.60
13798;DHT22;6970;51.340;3.240;2023-10-08T16:03:24;24.50;97.70
13798;DHT22;6970;51.340;3.240;2023-10-08T16:05:55;24.40;98.00
13798;DHT22;6970;51.340;3.240;2023-10-08T16:08:23;24.40;98.10
13798;DHT22;6970;51.340;3.240;2023-10-08T16:10:51;24.30;98.10
13798;DHT22;6970;51.340;3.240;2023-10-08T16:13:21;24.30;98.10
13798;DHT22;6970;51.340;3.240;2023-10-08T16:15:49;24.20;98.20
13798;DHT22;6970;51.340;3.240;2023-10-08T16:18:22;24.20;98.30
13798;DHT22;6970;51.340;3.240;2023-10-08T16:20:50;24.00;98.50
13798;DHT22;6970;51.340;3.240;2023-10-08T16:23:20;24.00;98.90
13798;DHT22;6970;51.340;3.240;2023-10-08T16:25:50;23.90;98.70
13798;DHT22;6970;51.340;3.240;2023-10-08T16:28:22;23.90;98.80
13798;DHT22;6970;51.340;3.240;2023-10-08T16:30:53;23.80;98.90